createdAt,value
2019-06-07T00:00:00.614Z,1.00
2019-06-07T00:02:28.888Z,0.87
2019-06-07T00:04:57.186Z,0.77
2019-06-07T00:07:25.532Z,0.70
2019-06-07T00:09:53.776Z,0.70
2019-06-07T00:12:22.064Z,0.90
2019-06-07T00:14:50.328Z,0.93
2019-06-07T00:17:20.227Z,0.63
2019-06-07T00:19:48.617Z,0.80
2019-06-07T00:22:30.108Z,1.07
2019-06-07T00:24:46.991Z,1.07
2019-06-07T00:27:15.766Z,0.90
2019-06-07T00:29:45.262Z,1.13
2019-06-07T00:32:14.985Z,0.97
2019-06-07T00:34:43.548Z,0.90
2019-06-07T00:37:12.728Z,1.03
2019-06-07T00:39:41.802Z,0.97
2019-06-07T00:42:10.840Z,1.20
2019-06-07T00:44:39.705Z,1.10
2019-06-07T00:47:08.026Z,0.80
2019-06-07T00:49:41.095Z,1.07
2019-06-07T00:52:06.380Z,1.50
2019-06-07T00:54:34.627Z,0.87
2019-06-07T00:57:02.873Z,0.60
2019-06-07T00:59:31.151Z,0.90
2019-06-07T01:01:59.411Z,1.00
2019-06-07T01:04:27.771Z,0.97
2019-06-07T01:06:56.116Z,1.00
2019-06-07T01:09:25.540Z,0.93
2019-06-07T01:11:54.162Z,0.83
2019-06-07T01:14:25.343Z,1.10
2019-06-07T01:16:59.488Z,0.83
2019-06-07T01:19:26.052Z,1.07
2019-06-07T01:21:52.523Z,0.80
2019-06-07T01:24:24.429Z,0.70
2019-06-07T01:26:53.866Z,0.87
2019-06-07T01:29:24.221Z,1.00
2019-06-07T01:31:52.202Z,0.97
2019-06-07T01:34:21.126Z,0.80
2019-06-07T01:36:50.581Z,0.80
2019-06-07T01:39:18.865Z,1.03
2019-06-07T01:41:47.187Z,0.90
2019-06-07T01:44:17.660Z,0.83
2019-06-07T01:46:45.444Z,1.10
2019-06-07T01:49:13.705Z,0.93
2019-06-07T01:51:42.030Z,1.33
2019-06-07T01:54:49.520Z,1.23
2019-06-07T01:56:40.338Z,1.20
2019-06-07T01:59:08.630Z,1.07
2019-06-07T02:01:36.948Z,1.23
2019-06-07T02:04:05.590Z,0.90
2019-06-07T02:06:33.987Z,1.20
2019-06-07T02:09:02.506Z,0.97
2019-06-07T02:11:31.939Z,0.80
2019-06-07T02:14:00.531Z,1.20
2019-06-07T02:16:32.012Z,1.00
2019-06-07T02:19:02.010Z,1.10
2019-06-07T02:21:33.427Z,1.17
2019-06-07T02:23:58.824Z,1.13
2019-06-07T02:26:30.020Z,1.40
2019-06-07T02:28:57.184Z,1.00
2019-06-07T02:31:31.010Z,0.97
2019-06-07T02:33:56.711Z,1.30
2019-06-07T02:36:29.697Z,1.30
2019-06-07T02:38:54.961Z,0.93
2019-06-07T02:41:30.066Z,1.50
2019-06-07T02:43:53.213Z,1.63
2019-06-07T02:46:34.643Z,1.30
2019-06-07T02:48:56.540Z,1.47
2019-06-07T02:51:32.116Z,1.10
2019-06-07T02:53:54.873Z,1.43
2019-06-07T02:56:53.950Z,1.57
2019-06-07T02:58:53.164Z,0.93
2019-06-07T03:01:21.435Z,1.70
2019-06-07T03:03:49.776Z,1.03
2019-06-07T03:06:18.059Z,1.20
2019-06-07T03:08:46.911Z,1.27
2019-06-07T03:11:15.804Z,1.70
2019-06-07T03:13:46.316Z,1.40
2019-06-07T03:16:20.533Z,1.57
2019-06-07T03:18:53.272Z,1.03
2019-06-07T03:21:23.153Z,1.70
2019-06-07T03:23:57.220Z,1.23
2019-06-07T03:26:30.452Z,1.10
2019-06-07T03:28:58.394Z,1.33
2019-06-07T03:31:28.431Z,1.90
2019-06-07T03:33:56.907Z,1.90
2019-06-07T03:36:26.007Z,2.10
2019-06-07T03:38:54.806Z,1.70
2019-06-07T03:41:23.352Z,1.70
2019-06-07T03:43:51.638Z,1.27
2019-06-07T03:46:19.901Z,1.77
2019-06-07T03:48:48.205Z,1.30
2019-06-07T03:51:24.770Z,1.57
2019-06-07T03:53:46.537Z,1.20
2019-06-07T03:56:15.703Z,1.00
2019-06-07T03:58:49.842Z,1.40
2019-06-07T04:01:14.111Z,1.87
2019-06-07T04:03:50.976Z,1.50
2019-06-07T04:06:12.355Z,1.50
2019-06-07T04:08:42.158Z,1.30
2019-06-07T04:11:10.763Z,1.00
2019-06-07T04:13:42.633Z,1.60
2019-06-07T04:16:09.079Z,1.57
2019-06-07T04:18:40.860Z,1.63
2019-06-07T04:21:07.462Z,1.07
2019-06-07T04:23:44.704Z,1.57
2019-06-07T04:26:06.978Z,1.20
2019-06-07T04:29:27.336Z,1.87
2019-06-07T04:31:05.294Z,1.30
2019-06-07T04:33:34.980Z,1.07
2019-06-07T04:36:03.648Z,1.57
2019-06-07T04:38:36.201Z,1.40
2019-06-07T04:41:02.376Z,1.20
2019-06-07T04:43:31.521Z,0.80
2019-06-07T04:46:00.553Z,1.03
2019-06-07T04:48:30.929Z,0.90
2019-06-07T04:50:59.689Z,1.20
2019-06-07T04:53:30.076Z,0.80
2019-06-07T04:55:57.938Z,1.27
2019-06-07T04:58:26.681Z,0.93
2019-06-07T05:01:02.646Z,0.70
2019-06-07T05:03:24.962Z,0.97
2019-06-07T05:05:53.265Z,1.17
2019-06-07T05:08:27.920Z,1.13
2019-06-07T05:10:51.587Z,0.90
2019-06-07T05:13:19.845Z,0.87
2019-06-07T05:15:48.145Z,1.00
2019-06-07T05:18:16.412Z,1.17
2019-06-07T05:20:44.947Z,1.10
2019-06-07T05:23:59.468Z,0.60
2019-06-07T05:25:44.748Z,0.83
2019-06-07T05:28:13.273Z,1.03
2019-06-07T05:33:11.548Z,0.90
2019-06-07T05:35:42.887Z,0.87
2019-06-07T05:38:09.840Z,1.13
2019-06-07T05:40:42.969Z,1.00
2019-06-07T05:43:21.567Z,0.80
2019-06-07T05:45:49.831Z,0.90
2019-06-07T05:48:18.121Z,0.77
2019-06-07T05:50:55.969Z,1.47
2019-06-07T05:53:16.423Z,2.07
2019-06-07T05:55:47.452Z,1.50
2019-06-07T05:58:14.720Z,1.30
2019-06-07T06:00:44.597Z,2.10
2019-06-07T06:03:13.064Z,1.67
2019-06-07T06:05:48.042Z,1.67
2019-06-07T06:08:11.440Z,1.40
2019-06-07T06:10:42.543Z,3.10
2019-06-07T06:13:09.700Z,1.23
2019-06-07T06:15:46.324Z,0.97
2019-06-07T06:18:07.998Z,1.50
2019-06-07T06:21:02.212Z,1.73
2019-06-07T06:23:06.254Z,3.30
2019-06-07T06:25:34.798Z,0.90
2019-06-07T06:28:11.578Z,1.00
2019-06-07T06:30:33.412Z,1.27
2019-06-07T06:33:01.795Z,1.70
2019-06-07T06:35:30.054Z,1.30
2019-06-07T06:37:59.520Z,1.33
2019-06-07T06:40:27.983Z,1.40
2019-06-07T06:42:56.272Z,1.57
2019-06-07T06:45:24.508Z,1.43
2019-06-07T06:47:52.793Z,1.20
2019-06-07T06:50:21.066Z,1.00
2019-06-07T06:52:54.240Z,1.50
2019-06-07T06:55:19.339Z,1.20
2019-06-07T06:57:48.480Z,1.23
2019-06-07T07:00:17.640Z,1.20
2019-06-07T07:03:32.533Z,0.80
2019-06-07T07:05:15.898Z,1.63
2019-06-07T07:07:45.432Z,1.13
2019-06-07T07:10:15.772Z,1.33
2019-06-07T07:12:45.432Z,1.10
2019-06-07T07:15:17.608Z,1.00
2019-06-07T07:17:56.590Z,1.00
2019-06-07T07:20:15.938Z,1.00
2019-06-07T07:22:46.377Z,1.53
2019-06-07T07:25:14.444Z,1.00
2019-06-07T07:27:44.464Z,0.97
2019-06-07T07:32:45.530Z,1.30
2019-06-07T07:35:12.769Z,1.10
2019-06-07T07:37:41.057Z,1.90
2019-06-07T07:40:55.550Z,1.10
2019-06-07T07:42:39.329Z,1.00
2019-06-07T07:45:07.578Z,1.20
2019-06-07T07:47:35.891Z,1.00
2019-06-07T07:50:06.495Z,0.63
2019-06-07T07:52:34.808Z,0.87
2019-06-07T07:55:04.010Z,1.00
2019-06-07T07:57:32.380Z,0.93
2019-06-07T08:00:36.217Z,1.60
2019-06-07T08:02:30.828Z,1.20
2019-06-07T08:05:28.742Z,1.30
2019-06-07T08:07:53.098Z,0.90
2019-06-07T08:10:19.082Z,1.00
2019-06-07T08:13:09.032Z,1.13
2019-06-07T08:15:18.462Z,1.00
2019-06-07T08:17:47.899Z,1.40
2019-06-07T08:20:16.837Z,1.43
2019-06-07T08:22:52.543Z,0.90
2019-06-07T08:25:20.973Z,1.13
2019-06-07T08:27:49.524Z,1.37
2019-06-07T08:32:51.600Z,1.37
2019-06-07T08:36:03.090Z,1.00
2019-06-07T08:38:21.596Z,1.00
2019-06-07T08:40:18.885Z,1.17
2019-06-07T08:43:03.127Z,1.13
2019-06-07T08:45:17.265Z,1.00
2019-06-07T08:47:45.575Z,0.87
2019-06-07T08:50:13.849Z,1.00
2019-06-07T08:52:42.114Z,1.57
2019-06-07T08:55:10.388Z,0.80
2019-06-07T08:57:38.674Z,1.50
2019-06-07T09:00:42.266Z,1.40
2019-06-07T09:02:37.208Z,2.00
2019-06-07T09:05:12.147Z,1.53
2019-06-07T09:07:36.506Z,0.87
2019-06-07T09:10:12.813Z,0.80
2019-06-07T09:12:36.762Z,1.10
2019-06-07T09:15:20.450Z,0.97
2019-06-07T09:18:29.521Z,1.47
2019-06-07T09:20:33.057Z,1.50
2019-06-07T09:22:39.062Z,1.90
2019-06-07T09:25:26.838Z,1.53
2019-06-07T09:28:02.982Z,2.13
2019-06-07T09:30:40.364Z,1.70
2019-06-07T09:33:09.704Z,0.83
2019-06-07T09:35:38.802Z,1.97
2019-06-07T09:38:18.141Z,1.73
2019-06-07T09:40:37.044Z,1.40
2019-06-07T09:43:55.342Z,0.80
2019-06-07T09:45:35.754Z,1.93
2019-06-07T09:48:11.514Z,9.80
2019-06-07T09:50:34.182Z,3.90
2019-06-07T09:53:10.450Z,2.20
2019-06-07T09:55:32.508Z,1.10
2019-06-07T09:58:07.987Z,1.60
2019-06-07T10:00:40.699Z,1.60
2019-06-07T10:03:08.841Z,1.83
2019-06-07T10:05:31.733Z,1.60
2019-06-07T10:08:14.419Z,1.53
2019-06-07T10:12:59.534Z,2.20
2019-06-07T10:15:27.958Z,1.60
2019-06-07T10:17:56.219Z,1.97
2019-06-07T10:20:24.550Z,1.90
2019-06-07T10:22:52.851Z,1.73
2019-06-07T10:25:21.119Z,1.10
2019-06-07T10:27:49.367Z,1.77
2019-06-07T10:30:17.631Z,1.77
2019-06-07T10:32:45.901Z,2.20
2019-06-07T10:35:16.471Z,1.13
2019-06-07T10:37:44.245Z,1.13
2019-06-07T10:40:12.493Z,1.20
2019-06-07T10:42:40.763Z,1.30
2019-06-07T10:45:10.320Z,1.17
2019-06-07T10:47:39.009Z,1.77
2019-06-07T10:50:08.111Z,2.43
2019-06-07T10:52:36.507Z,1.73
2019-06-07T10:55:08.618Z,1.50
2019-06-07T10:57:37.110Z,1.00
2019-06-07T11:00:09.406Z,1.83
2019-06-07T11:02:38.333Z,2.10
2019-06-07T11:05:08.185Z,2.23
2019-06-07T11:07:36.958Z,1.10
2019-06-07T11:10:14.994Z,1.37
2019-06-07T11:12:38.278Z,1.23
2019-06-07T11:15:08.893Z,2.20
2019-06-07T11:17:37.486Z,1.50
2019-06-07T11:20:08.200Z,1.77
2019-06-07T11:22:36.971Z,1.40
2019-06-07T11:25:06.907Z,1.30
2019-06-07T11:27:35.747Z,1.27
2019-06-07T11:30:06.259Z,1.17
2019-06-07T11:32:34.572Z,1.77
2019-06-07T11:35:04.590Z,1.20
2019-06-07T11:37:32.881Z,1.20
2019-06-07T11:40:01.196Z,0.93
2019-06-07T11:42:29.473Z,0.83
2019-06-07T11:44:57.768Z,1.50
2019-06-07T11:47:26.053Z,1.00
2019-06-07T11:49:54.377Z,0.90
2019-06-07T11:52:22.613Z,1.37
2019-06-07T11:54:50.944Z,1.93
2019-06-07T11:57:19.270Z,1.03
2019-06-07T11:59:47.506Z,1.47
2019-06-07T12:02:15.776Z,1.03
2019-06-07T12:04:44.068Z,2.87
2019-06-07T12:07:13.836Z,1.50
2019-06-07T12:09:55.484Z,1.40
2019-06-07T12:12:12.650Z,1.90
2019-06-07T12:14:41.107Z,1.53
2019-06-07T12:17:09.358Z,1.30
2019-06-07T12:19:37.646Z,1.73
2019-06-07T12:22:05.899Z,1.37
2019-06-07T12:24:34.182Z,1.77
2019-06-07T12:27:02.543Z,1.23
2019-06-07T12:29:33.863Z,1.53
2019-06-07T12:32:00.880Z,1.50
2019-06-07T12:34:29.182Z,1.63
2019-06-07T12:36:57.561Z,1.20
2019-06-07T12:39:25.976Z,1.70
2019-06-07T12:41:54.310Z,1.40
2019-06-07T12:44:22.829Z,1.17
2019-06-07T12:46:51.479Z,1.23
2019-06-07T12:49:21.101Z,1.70
2019-06-07T12:51:49.542Z,1.93
2019-06-07T12:54:17.784Z,1.27
2019-06-07T12:56:46.066Z,1.30
2019-06-07T12:59:14.424Z,1.30
2019-06-07T13:01:44.299Z,1.40
2019-06-07T13:04:12.597Z,1.70
2019-06-07T13:06:40.859Z,1.10
2019-06-07T13:09:09.137Z,1.40
2019-06-07T13:11:37.376Z,1.37
2019-06-07T13:14:05.709Z,2.03
2019-06-07T13:16:34.001Z,1.20
2019-06-07T13:19:02.276Z,1.33
2019-06-07T13:21:30.565Z,1.57
2019-06-07T13:23:58.935Z,1.77
2019-06-07T13:26:28.568Z,1.10
2019-06-07T13:28:57.039Z,1.57
2019-06-07T13:31:25.368Z,1.70
2019-06-07T13:33:53.700Z,1.73
2019-06-07T13:36:22.384Z,1.60
2019-06-07T13:38:50.724Z,1.10
2019-06-07T13:41:32.644Z,1.30
2019-06-07T13:43:51.470Z,1.10
2019-06-07T13:46:19.087Z,1.60
2019-06-07T13:48:47.347Z,1.63
2019-06-07T13:51:15.581Z,1.27
2019-06-07T13:53:43.889Z,1.43
2019-06-07T13:56:12.121Z,1.70
2019-06-07T13:58:40.413Z,1.70
2019-06-07T14:01:08.695Z,1.20
2019-06-07T14:03:37.007Z,1.53
2019-06-07T14:06:05.457Z,2.30
2019-06-07T14:08:33.753Z,1.40
2019-06-07T14:11:02.046Z,2.40
2019-06-07T14:13:30.481Z,1.80
2019-06-07T14:15:58.841Z,1.53
2019-06-07T14:18:28.631Z,1.93
2019-06-07T14:20:58.989Z,1.77
2019-06-07T14:23:45.188Z,1.33
2019-06-07T14:25:57.680Z,3.40
2019-06-07T14:28:28.589Z,1.70
2019-06-07T14:30:56.010Z,1.60
2019-06-07T14:33:26.893Z,1.90
2019-06-07T14:35:54.358Z,1.97
2019-06-07T14:38:23.104Z,2.07
2019-06-07T14:40:51.580Z,1.70
2019-06-07T14:43:19.896Z,1.27
2019-06-07T14:45:48.204Z,2.03
2019-06-07T14:48:16.492Z,1.60
2019-06-07T14:50:44.813Z,1.50
2019-06-07T14:53:13.181Z,1.60
2019-06-07T14:55:41.461Z,2.40
2019-06-07T14:58:09.743Z,1.93
2019-06-07T15:00:42.739Z,2.20
2019-06-07T15:03:11.187Z,1.87
2019-06-07T15:05:40.399Z,1.77
2019-06-07T15:08:08.934Z,1.80
2019-06-07T15:10:37.215Z,2.30
2019-06-07T15:13:05.543Z,1.80
2019-06-07T15:15:34.594Z,1.70
2019-06-07T15:18:02.923Z,1.20
2019-06-07T15:20:32.184Z,1.37
2019-06-07T15:23:00.608Z,2.50
2019-06-07T15:25:29.195Z,1.90
2019-06-07T15:27:57.728Z,2.27
2019-06-07T15:30:27.348Z,1.50
2019-06-07T15:32:59.434Z,1.77
2019-06-07T15:35:25.778Z,1.80
2019-06-07T15:37:54.051Z,1.60
2019-06-07T15:40:22.338Z,1.83
2019-06-07T15:42:53.124Z,1.63
2019-06-07T15:45:20.640Z,1.17
2019-06-07T15:47:48.996Z,1.70
2019-06-07T15:50:17.258Z,1.90
2019-06-07T15:52:45.537Z,1.60
2019-06-07T15:55:13.784Z,1.93
2019-06-07T15:57:42.493Z,1.47
2019-06-07T16:00:11.901Z,1.70
2019-06-07T16:02:41.647Z,1.57
2019-06-07T16:05:10.280Z,1.77
2019-06-07T16:07:38.582Z,1.77
2019-06-07T16:10:08.227Z,1.70
2019-06-07T16:12:36.733Z,1.60
2019-06-07T16:15:07.481Z,1.60
2019-06-07T16:17:37.275Z,2.80
2019-06-07T16:20:06.814Z,1.57
2019-06-07T16:22:35.784Z,1.93
2019-06-07T16:25:05.675Z,1.57
2019-06-07T16:27:34.406Z,1.50
2019-06-07T16:30:08.981Z,1.43
2019-06-07T16:32:34.945Z,1.20
2019-06-07T16:35:05.197Z,1.53
2019-06-07T16:37:33.455Z,1.50
2019-06-07T16:40:01.790Z,1.60
2019-06-07T16:42:30.085Z,1.73
2019-06-07T16:44:58.386Z,2.00
2019-06-07T16:47:26.713Z,2.30
2019-06-07T16:49:55.036Z,4.43
2019-06-07T16:52:23.327Z,3.03
2019-06-07T16:54:51.616Z,2.40
2019-06-07T16:57:19.917Z,2.87
2019-06-07T16:59:50.505Z,4.37
2019-06-07T17:02:18.214Z,1.80
2019-06-07T17:04:47.770Z,2.10
2019-06-07T17:07:16.234Z,2.70
2019-06-07T17:09:45.741Z,2.83
2019-06-07T17:12:14.527Z,1.80
2019-06-07T17:14:42.777Z,3.52
2019-06-07T17:17:11.106Z,2.33
2019-06-07T17:19:39.358Z,3.10
2019-06-07T17:22:07.648Z,2.63
2019-06-07T17:24:35.916Z,2.30
2019-06-07T17:27:04.267Z,2.97
2019-06-07T17:29:32.527Z,1.90
2019-06-07T17:32:00.768Z,2.20
2019-06-07T17:34:29.079Z,2.43
2019-06-07T17:36:57.351Z,3.13
2019-06-07T17:39:25.679Z,2.67
2019-06-07T17:42:01.643Z,2.20
2019-06-07T17:44:23.947Z,2.27
2019-06-07T17:46:52.237Z,2.30
2019-06-07T17:49:20.596Z,1.80
2019-06-07T17:51:50.016Z,2.67
2019-06-07T17:54:18.389Z,2.47
2019-06-07T17:56:46.662Z,2.40
2019-06-07T17:59:14.913Z,2.70
2019-06-07T18:02:05.881Z,2.60
2019-06-07T18:04:13.222Z,1.83
2019-06-07T18:06:41.453Z,2.17
2019-06-07T18:09:09.927Z,2.50
2019-06-07T18:11:38.187Z,2.00
2019-06-07T18:14:10.977Z,1.80
2019-06-07T18:16:36.626Z,1.80
2019-06-07T18:19:04.949Z,2.60
2019-06-07T18:21:33.295Z,2.60
2019-06-07T18:24:01.562Z,2.77
2019-06-07T18:26:29.807Z,2.20
2019-06-07T18:28:59.345Z,2.13
2019-06-07T18:31:27.815Z,2.27
2019-06-07T18:33:56.061Z,2.13
2019-06-07T18:36:24.414Z,2.10
2019-06-07T18:38:53.113Z,2.50
2019-06-07T18:41:21.823Z,2.70
2019-06-07T18:43:51.133Z,2.70
2019-06-07T18:46:19.788Z,3.00
2019-06-07T18:48:48.365Z,2.67
2019-06-07T18:51:16.737Z,3.30
2019-06-07T18:53:44.998Z,2.50
2019-06-07T18:56:13.319Z,2.53
2019-06-07T18:58:41.722Z,2.20
2019-06-07T19:01:10.005Z,2.43
2019-06-07T19:03:38.240Z,2.20
2019-06-07T19:06:06.751Z,3.57
2019-06-07T19:08:35.278Z,3.50
2019-06-07T19:11:03.547Z,4.30
2019-06-07T19:13:31.794Z,3.60
2019-06-07T19:16:00.111Z,2.53
2019-06-07T19:18:28.437Z,3.00
2019-06-07T19:20:56.709Z,3.13
2019-06-07T19:23:24.977Z,2.73
2019-06-07T19:25:54.297Z,2.20
2019-06-07T19:28:22.674Z,3.70
2019-06-07T19:30:50.996Z,2.57
2019-06-07T19:33:19.250Z,2.60
2019-06-07T19:35:48.164Z,2.97
2019-06-07T19:38:17.206Z,2.50
2019-06-07T19:40:45.741Z,2.23
2019-06-07T19:43:13.987Z,2.67
2019-06-07T19:45:42.262Z,2.47
2019-06-07T19:48:10.651Z,2.67
2019-06-07T19:50:38.996Z,2.73
2019-06-07T19:53:07.272Z,2.80
2019-06-07T19:55:35.621Z,2.47
2019-06-07T19:58:04.058Z,2.90
2019-06-07T20:00:32.326Z,2.03
2019-06-07T20:03:02.086Z,2.27
2019-06-07T20:05:33.740Z,2.03
2019-06-07T20:08:00.667Z,2.20
2019-06-07T20:10:29.081Z,2.53
2019-06-07T20:12:58.565Z,2.67
2019-06-07T20:15:29.449Z,3.27
2019-06-07T20:17:57.209Z,1.67
2019-06-07T20:20:25.602Z,1.20
2019-06-07T20:22:53.903Z,1.07
2019-06-07T20:25:22.176Z,1.03
2019-06-07T20:27:50.422Z,0.90
2019-06-07T20:30:18.769Z,0.80
2019-06-07T20:32:47.068Z,0.90
2019-06-07T20:35:15.337Z,0.50
2019-06-07T20:37:43.633Z,0.60
2019-06-07T20:40:23.585Z,0.60
2019-06-07T20:42:41.992Z,0.60
2019-06-07T20:45:10.239Z,0.60
2019-06-07T20:47:38.525Z,0.57
2019-06-07T20:50:08.655Z,0.60
2019-06-07T20:52:37.307Z,1.00
2019-06-07T20:55:07.362Z,0.60
2019-06-07T20:57:35.658Z,0.80
2019-06-07T21:00:16.002Z,0.60
2019-06-07T21:02:38.973Z,0.40
2019-06-07T21:05:07.617Z,0.40
2019-06-07T21:07:36.082Z,0.50
2019-06-07T21:10:07.998Z,0.60
2019-06-07T21:12:36.458Z,0.53
2019-06-07T21:15:11.815Z,0.40
2019-06-07T21:17:37.854Z,0.50
2019-06-07T21:20:09.862Z,0.40
2019-06-07T21:22:37.277Z,0.40
2019-06-07T21:25:09.483Z,0.57
2019-06-07T21:27:38.105Z,0.40
2019-06-07T21:30:09.534Z,0.53
2019-06-07T21:32:37.970Z,0.40
2019-06-07T21:35:07.999Z,0.40
2019-06-07T21:37:36.552Z,0.33
2019-06-07T21:40:06.045Z,0.50
2019-06-07T21:42:34.393Z,0.33
2019-06-07T21:45:03.543Z,0.50
2019-06-07T21:47:32.664Z,0.30
2019-06-07T21:50:02.455Z,0.40
2019-06-07T21:52:30.962Z,1.53
2019-06-07T21:54:59.216Z,0.50
2019-06-07T21:57:27.495Z,0.40
2019-06-07T21:59:55.737Z,0.60
2019-06-07T22:02:24.113Z,0.50
2019-06-07T22:04:52.370Z,0.50
2019-06-07T22:07:20.822Z,0.50
2019-06-07T22:09:49.064Z,0.50
2019-06-07T22:12:17.340Z,0.40
2019-06-07T22:14:45.680Z,0.60
2019-06-07T22:17:14.500Z,0.40
2019-06-07T22:19:42.992Z,0.40
2019-06-07T22:22:11.328Z,0.60
2019-06-07T22:24:39.616Z,0.50
2019-06-07T22:27:09.085Z,0.53
2019-06-07T22:29:37.664Z,0.50
2019-06-07T22:32:06.733Z,0.50
2019-06-07T22:34:35.212Z,0.50
2019-06-07T22:37:03.489Z,0.40
2019-06-07T22:39:31.770Z,0.50
2019-06-07T22:42:00.032Z,0.80
2019-06-07T22:44:28.326Z,0.30
2019-06-07T22:46:57.394Z,0.43
2019-06-07T22:49:25.769Z,0.40
2019-06-07T22:52:07.914Z,0.37
2019-06-07T22:54:24.087Z,0.40
2019-06-07T22:56:57.112Z,0.40
2019-06-07T22:59:25.395Z,0.40
2019-06-07T23:01:53.657Z,0.33
2019-06-07T23:04:21.928Z,0.43
2019-06-07T23:06:50.216Z,0.60
2019-06-07T23:09:19.790Z,0.40
2019-06-07T23:11:48.172Z,0.50
2019-06-07T23:14:17.504Z,0.73
2019-06-07T23:16:55.558Z,0.30
2019-06-07T23:19:16.243Z,0.60
2019-06-07T23:21:44.688Z,0.40
2019-06-07T23:24:14.061Z,0.53
2019-06-07T23:26:42.503Z,0.40
2019-06-07T23:29:10.755Z,0.37
2019-06-07T23:31:39.051Z,0.80
2019-06-07T23:34:07.310Z,0.60
2019-06-07T23:36:35.614Z,0.80
2019-06-07T23:39:05.501Z,0.40
2019-06-07T23:41:33.789Z,0.57
2019-06-07T23:44:02.061Z,0.47
2019-06-07T23:46:30.337Z,0.50
2019-06-07T23:48:58.661Z,0.70
2019-06-07T23:51:26.892Z,0.47
2019-06-07T23:53:55.191Z,0.50
2019-06-07T23:56:23.541Z,0.40
2019-06-07T23:58:51.816Z,0.47
